sensor_id;sensor_type;location;lat;lon;timestamp;P1;durP1;ratioP1;P2;durP2;ratioP2
26484;SDS011;18083;50.560;7.262;2023-01-25T00:02:05;17.57;;;11.13;;
26484;SDS011;18083;50.560;7.262;2023-01-25T00:04:33;17.50;;;11.60;;
26484;SDS011;18083;50.560;7.262;2023-01-25T00:07:00;22.37;;;12.40;;
26484;SDS011;18083;50.560;7.262;2023-01-25T00:09:27;22.53;;;13.40;;
26484;SDS011;18083;50.560;7.262;2023-01-25T00:11:55;17.00;;;10.77;;
26484;SDS011;18083;50.560;7.262;2023-01-25T00:14:23;16.97;;;11.10;;
26484;SDS011;18083;50.560;7.262;2023-01-25T00:16:51;17.43;;;11.77;;
26484;SDS011;18083;50.560;7.262;2023-01-25T00:19:18;23.33;;;14.00;;
26484;SDS011;18083;50.560;7.262;2023-01-25T00:21:45;21.97;;;13.37;;
26484;SDS011;18083;50.560;7.262;2023-01-25T00:24:13;18.80;;;12.87;;
26484;SDS011;18083;50.560;7.262;2023-01-25T00:26:40;16.17;;;11.37;;
26484;SDS011;18083;50.560;7.262;2023-01-25T00:29:10;17.37;;;11.17;;
26484;SDS011;18083;50.560;7.262;2023-01-25T00:36:55;19.33;;;10.67;;
26484;SDS011;18083;50.560;7.262;2023-01-25T00:39:24;18.97;;;11.03;;
26484;SDS011;18083;50.560;7.262;2023-01-25T00:41:52;21.03;;;12.17;;
26484;SDS011;18083;50.560;7.262;2023-01-25T00:44:19;18.70;;;12.10;;
26484;SDS011;18083;50.560;7.262;2023-01-25T00:46:46;21.90;;;13.10;;
26484;SDS011;18083;50.560;7.262;2023-01-25T00:49:19;13.70;;;9.97;;
26484;SDS011;18083;50.560;7.262;2023-01-25T00:51:43;16.23;;;10.13;;
26484;SDS011;18083;50.560;7.262;2023-01-25T00:54:10;16.77;;;9.87;;
26484;SDS011;18083;50.560;7.262;2023-01-25T00:56:37;16.27;;;11.00;;
26484;SDS011;18083;50.560;7.262;2023-01-25T00:59:05;18.20;;;11.70;;
26484;SDS011;18083;50.560;7.262;2023-01-25T01:01:33;18.10;;;11.60;;
26484;SDS011;18083;50.560;7.262;2023-01-25T01:04:00;16.80;;;10.17;;
26484;SDS011;18083;50.560;7.262;2023-01-25T01:06:28;18.77;;;12.10;;
26484;SDS011;18083;50.560;7.262;2023-01-25T01:08:55;17.13;;;10.70;;
26484;SDS011;18083;50.560;7.262;2023-01-25T01:11:23;18.40;;;11.80;;
26484;SDS011;18083;50.560;7.262;2023-01-25T01:13:50;18.37;;;11.27;;
26484;SDS011;18083;50.560;7.262;2023-01-25T01:16:17;18.97;;;10.80;;
26484;SDS011;18083;50.560;7.262;2023-01-25T01:18:44;18.73;;;11.57;;
26484;SDS011;18083;50.560;7.262;2023-01-25T01:21:12;17.67;;;11.20;;
26484;SDS011;18083;50.560;7.262;2023-01-25T01:23:39;19.43;;;12.33;;
26484;SDS011;18083;50.560;7.262;2023-01-25T01:26:08;18.63;;;12.57;;
26484;SDS011;18083;50.560;7.262;2023-01-25T01:28:35;20.23;;;12.43;;
26484;SDS011;18083;50.560;7.262;2023-01-25T01:31:09;21.67;;;12.80;;
26484;SDS011;18083;50.560;7.262;2023-01-25T01:33:33;20.63;;;12.73;;
26484;SDS011;18083;50.560;7.262;2023-01-25T01:36:07;20.13;;;12.17;;
26484;SDS011;18083;50.560;7.262;2023-01-25T01:38:35;19.90;;;13.07;;
26484;SDS011;18083;50.560;7.262;2023-01-25T01:41:02;22.00;;;12.40;;
26484;SDS011;18083;50.560;7.262;2023-01-25T01:43:30;15.60;;;10.40;;
26484;SDS011;18083;50.560;7.262;2023-01-25T01:45:58;19.57;;;10.90;;
26484;SDS011;18083;50.560;7.262;2023-01-25T01:51:25;14.53;;;10.23;;
26484;SDS011;18083;50.560;7.262;2023-01-25T01:53:29;15.10;;;10.77;;
26484;SDS011;18083;50.560;7.262;2023-01-25T01:55:59;17.57;;;12.00;;
26484;SDS011;18083;50.560;7.262;2023-01-25T01:58:27;17.10;;;11.23;;
26484;SDS011;18083;50.560;7.262;2023-01-25T02:00:55;16.70;;;10.53;;
26484;SDS011;18083;50.560;7.262;2023-01-25T02:03:22;18.13;;;11.00;;
26484;SDS011;18083;50.560;7.262;2023-01-25T02:05:53;15.90;;;10.30;;
26484;SDS011;18083;50.560;7.262;2023-01-25T02:08:19;18.50;;;11.67;;
26484;SDS011;18083;50.560;7.262;2023-01-25T02:10:47;19.87;;;12.43;;
26484;SDS011;18083;50.560;7.262;2023-01-25T02:13:20;15.00;;;10.60;;
26484;SDS011;18083;50.560;7.262;2023-01-25T02:15:48;17.30;;;12.60;;
26484;SDS011;18083;50.560;7.262;2023-01-25T02:21:19;16.77;;;10.23;;
26484;SDS011;18083;50.560;7.262;2023-01-25T02:23:50;21.67;;;11.10;;
26484;SDS011;18083;50.560;7.262;2023-01-25T02:26:16;13.47;;;10.83;;
26484;SDS011;18083;50.560;7.262;2023-01-25T02:28:46;13.63;;;9.67;;
26484;SDS011;18083;50.560;7.262;2023-01-25T02:31:13;17.00;;;10.80;;
26484;SDS011;18083;50.560;7.262;2023-01-25T02:33:41;18.47;;;10.97;;
26484;SDS011;18083;50.560;7.262;2023-01-25T02:38:53;18.80;;;12.33;;
26484;SDS011;18083;50.560;7.262;2023-01-25T02:41:26;18.60;;;11.43;;
26484;SDS011;18083;50.560;7.262;2023-01-25T02:43:53;18.63;;;11.63;;
26484;SDS011;18083;50.560;7.262;2023-01-25T02:46:21;14.73;;;9.50;;
26484;SDS011;18083;50.560;7.262;2023-01-25T02:48:51;17.40;;;11.13;;
26484;SDS011;18083;50.560;7.262;2023-01-25T02:51:18;15.90;;;11.80;;
26484;SDS011;18083;50.560;7.262;2023-01-25T02:53:46;19.47;;;10.50;;
26484;SDS011;18083;50.560;7.262;2023-01-25T02:56:13;18.43;;;11.63;;
26484;SDS011;18083;50.560;7.262;2023-01-25T02:58:40;17.60;;;11.10;;
26484;SDS011;18083;50.560;7.262;2023-01-25T03:01:08;20.47;;;11.77;;
26484;SDS011;18083;50.560;7.262;2023-01-25T03:03:35;19.63;;;12.23;;
26484;SDS011;18083;50.560;7.262;2023-01-25T03:06:03;17.77;;;11.40;;
26484;SDS011;18083;50.560;7.262;2023-01-25T03:08:30;16.63;;;10.57;;
26484;SDS011;18083;50.560;7.262;2023-01-25T03:10:58;17.73;;;10.87;;
26484;SDS011;18083;50.560;7.262;2023-01-25T03:13:26;20.20;;;11.33;;
26484;SDS011;18083;50.560;7.262;2023-01-25T03:16:00;17.77;;;10.03;;
26484;SDS011;18083;50.560;7.262;2023-01-25T03:18:28;19.00;;;12.73;;
26484;SDS011;18083;50.560;7.262;2023-01-25T03:20:55;17.57;;;11.43;;
26484;SDS011;18083;50.560;7.262;2023-01-25T03:23:22;18.13;;;10.83;;
26484;SDS011;18083;50.560;7.262;2023-01-25T03:25:50;20.57;;;12.90;;
26484;SDS011;18083;50.560;7.262;2023-01-25T03:28:17;18.17;;;10.33;;
26484;SDS011;18083;50.560;7.262;2023-01-25T03:30:44;15.93;;;10.57;;
26484;SDS011;18083;50.560;7.262;2023-01-25T03:33:13;18.80;;;11.00;;
26484;SDS011;18083;50.560;7.262;2023-01-25T03:35:40;21.23;;;12.73;;
26484;SDS011;18083;50.560;7.262;2023-01-25T03:38:08;17.00;;;10.90;;
26484;SDS011;18083;50.560;7.262;2023-01-25T03:40:35;19.23;;;11.93;;
26484;SDS011;18083;50.560;7.262;2023-01-25T03:43:03;22.63;;;13.23;;
26484;SDS011;18083;50.560;7.262;2023-01-25T03:45:30;24.93;;;13.90;;
26484;SDS011;18083;50.560;7.262;2023-01-25T03:47:57;20.20;;;12.13;;
26484;SDS011;18083;50.560;7.262;2023-01-25T03:50:24;18.93;;;12.43;;
26484;SDS011;18083;50.560;7.262;2023-01-25T03:52:52;19.87;;;14.00;;
26484;SDS011;18083;50.560;7.262;2023-01-25T03:55:21;16.63;;;11.57;;
26484;SDS011;18083;50.560;7.262;2023-01-25T03:57:48;20.77;;;12.43;;
26484;SDS011;18083;50.560;7.262;2023-01-25T04:00:16;24.83;;;13.50;;
26484;SDS011;18083;50.560;7.262;2023-01-25T04:02:43;19.83;;;12.00;;
26484;SDS011;18083;50.560;7.262;2023-01-25T04:05:10;17.07;;;11.03;;
26484;SDS011;18083;50.560;7.262;2023-01-25T04:07:38;18.10;;;10.73;;
26484;SDS011;18083;50.560;7.262;2023-01-25T04:10:05;21.47;;;13.30;;
26484;SDS011;18083;50.560;7.262;2023-01-25T04:12:33;25.60;;;13.73;;
26484;SDS011;18083;50.560;7.262;2023-01-25T04:15:00;22.63;;;11.73;;
26484;SDS011;18083;50.560;7.262;2023-01-25T04:17:27;20.20;;;10.87;;
26484;SDS011;18083;50.560;7.262;2023-01-25T04:19:55;19.63;;;12.80;;
26484;SDS011;18083;50.560;7.262;2023-01-25T04:22:22;19.60;;;11.33;;
26484;SDS011;18083;50.560;7.262;2023-01-25T04:24:49;20.50;;;12.43;;
26484;SDS011;18083;50.560;7.262;2023-01-25T04:27:17;17.90;;;10.83;;
26484;SDS011;18083;50.560;7.262;2023-01-25T04:29:44;17.37;;;10.90;;
26484;SDS011;18083;50.560;7.262;2023-01-25T04:32:11;21.40;;;12.90;;
26484;SDS011;18083;50.560;7.262;2023-01-25T04:34:38;24.63;;;13.17;;
26484;SDS011;18083;50.560;7.262;2023-01-25T04:37:06;16.03;;;11.47;;
26484;SDS011;18083;50.560;7.262;2023-01-25T04:39:33;18.17;;;11.33;;
26484;SDS011;18083;50.560;7.262;2023-01-25T04:42:00;18.20;;;11.23;;
26484;SDS011;18083;50.560;7.262;2023-01-25T04:44:28;19.47;;;10.60;;
26484;SDS011;18083;50.560;7.262;2023-01-25T04:46:55;20.93;;;10.73;;
26484;SDS011;18083;50.560;7.262;2023-01-25T04:49:22;21.60;;;11.37;;
26484;SDS011;18083;50.560;7.262;2023-01-25T04:51:50;21.17;;;11.10;;
26484;SDS011;18083;50.560;7.262;2023-01-25T04:54:17;20.37;;;13.10;;
26484;SDS011;18083;50.560;7.262;2023-01-25T04:56:44;21.47;;;12.60;;
26484;SDS011;18083;50.560;7.262;2023-01-25T04:59:12;20.67;;;13.50;;
26484;SDS011;18083;50.560;7.262;2023-01-25T05:01:39;17.93;;;10.60;;
26484;SDS011;18083;50.560;7.262;2023-01-25T05:04:06;19.30;;;12.40;;
26484;SDS011;18083;50.560;7.262;2023-01-25T05:06:34;19.93;;;11.40;;
26484;SDS011;18083;50.560;7.262;2023-01-25T05:09:01;18.47;;;12.50;;
26484;SDS011;18083;50.560;7.262;2023-01-25T05:11:28;21.80;;;12.33;;
26484;SDS011;18083;50.560;7.262;2023-01-25T05:13:56;17.93;;;11.63;;
26484;SDS011;18083;50.560;7.262;2023-01-25T05:16:23;24.10;;;11.07;;
26484;SDS011;18083;50.560;7.262;2023-01-25T05:18:50;20.57;;;12.37;;
26484;SDS011;18083;50.560;7.262;2023-01-25T05:21:18;15.70;;;10.03;;
26484;SDS011;18083;50.560;7.262;2023-01-25T05:24:03;19.83;;;12.23;;
26484;SDS011;18083;50.560;7.262;2023-01-25T05:26:30;17.47;;;11.53;;
26484;SDS011;18083;50.560;7.262;2023-01-25T05:29:15;28.30;;;13.07;;
26484;SDS011;18083;50.560;7.262;2023-01-25T05:31:42;21.20;;;12.23;;
26484;SDS011;18083;50.560;7.262;2023-01-25T05:34:10;19.63;;;12.73;;
26484;SDS011;18083;50.560;7.262;2023-01-25T05:36:37;23.73;;;13.40;;
26484;SDS011;18083;50.560;7.262;2023-01-25T05:39:05;21.07;;;11.37;;
26484;SDS011;18083;50.560;7.262;2023-01-25T05:41:33;22.73;;;12.50;;
26484;SDS011;18083;50.560;7.262;2023-01-25T05:44:01;20.80;;;11.50;;
26484;SDS011;18083;50.560;7.262;2023-01-25T05:46:28;24.87;;;13.00;;
26484;SDS011;18083;50.560;7.262;2023-01-25T05:48:56;23.83;;;13.10;;
26484;SDS011;18083;50.560;7.262;2023-01-25T05:51:23;22.63;;;14.33;;
26484;SDS011;18083;50.560;7.262;2023-01-25T05:53:53;25.03;;;13.93;;
26484;SDS011;18083;50.560;7.262;2023-01-25T05:56:19;23.03;;;12.73;;
26484;SDS011;18083;50.560;7.262;2023-01-25T05:58:46;28.23;;;13.43;;
26484;SDS011;18083;50.560;7.262;2023-01-25T06:01:15;26.23;;;13.83;;
26484;SDS011;18083;50.560;7.262;2023-01-25T06:03:44;24.40;;;12.87;;
26484;SDS011;18083;50.560;7.262;2023-01-25T06:06:11;20.67;;;11.80;;
26484;SDS011;18083;50.560;7.262;2023-01-25T06:08:38;21.40;;;14.27;;
26484;SDS011;18083;50.560;7.262;2023-01-25T06:11:06;27.40;;;14.50;;
26484;SDS011;18083;50.560;7.262;2023-01-25T06:13:33;32.83;;;18.27;;
26484;SDS011;18083;50.560;7.262;2023-01-25T06:16:01;25.00;;;15.33;;
26484;SDS011;18083;50.560;7.262;2023-01-25T06:18:29;23.70;;;15.00;;
26484;SDS011;18083;50.560;7.262;2023-01-25T06:20:57;21.33;;;13.77;;
26484;SDS011;18083;50.560;7.262;2023-01-25T06:23:24;28.97;;;13.43;;
26484;SDS011;18083;50.560;7.262;2023-01-25T06:25:52;23.57;;;13.47;;
26484;SDS011;18083;50.560;7.262;2023-01-25T06:28:20;21.60;;;13.07;;
26484;SDS011;18083;50.560;7.262;2023-01-25T06:30:47;23.00;;;13.97;;
26484;SDS011;18083;50.560;7.262;2023-01-25T06:33:15;27.93;;;15.17;;
26484;SDS011;18083;50.560;7.262;2023-01-25T06:35:42;23.10;;;13.23;;
26484;SDS011;18083;50.560;7.262;2023-01-25T06:38:09;22.47;;;12.13;;
26484;SDS011;18083;50.560;7.262;2023-01-25T06:40:37;24.53;;;12.13;;
26484;SDS011;18083;50.560;7.262;2023-01-25T06:43:09;22.10;;;13.03;;
26484;SDS011;18083;50.560;7.262;2023-01-25T06:45:33;24.00;;;13.53;;
26484;SDS011;18083;50.560;7.262;2023-01-25T06:48:00;24.70;;;13.20;;
26484;SDS011;18083;50.560;7.262;2023-01-25T06:50:28;22.30;;;12.30;;
26484;SDS011;18083;50.560;7.262;2023-01-25T06:52:55;21.23;;;12.40;;
26484;SDS011;18083;50.560;7.262;2023-01-25T06:55:23;25.43;;;14.13;;
26484;SDS011;18083;50.560;7.262;2023-01-25T06:57:50;21.10;;;12.33;;
26484;SDS011;18083;50.560;7.262;2023-01-25T07:00:17;24.27;;;14.03;;
26484;SDS011;18083;50.560;7.262;2023-01-25T07:02:45;22.00;;;12.00;;
26484;SDS011;18083;50.560;7.262;2023-01-25T07:05:12;20.47;;;12.10;;
26484;SDS011;18083;50.560;7.262;2023-01-25T07:07:43;20.27;;;12.00;;
26484;SDS011;18083;50.560;7.262;2023-01-25T07:10:10;28.63;;;14.10;;
26484;SDS011;18083;50.560;7.262;2023-01-25T07:12:49;19.40;;;12.23;;
26484;SDS011;18083;50.560;7.262;2023-01-25T07:15:18;22.10;;;12.37;;
26484;SDS011;18083;50.560;7.262;2023-01-25T07:17:50;24.37;;;12.43;;
26484;SDS011;18083;50.560;7.262;2023-01-25T07:20:18;24.83;;;13.43;;
26484;SDS011;18083;50.560;7.262;2023-01-25T07:22:45;27.77;;;14.57;;
26484;SDS011;18083;50.560;7.262;2023-01-25T07:25:12;22.87;;;13.57;;
26484;SDS011;18083;50.560;7.262;2023-01-25T07:27:40;27.37;;;13.23;;
26484;SDS011;18083;50.560;7.262;2023-01-25T07:30:07;22.80;;;13.60;;
26484;SDS011;18083;50.560;7.262;2023-01-25T07:32:35;20.00;;;12.00;;
26484;SDS011;18083;50.560;7.262;2023-01-25T07:35:02;23.57;;;13.20;;
26484;SDS011;18083;50.560;7.262;2023-01-25T07:58:41;23.07;;;13.33;;
26484;SDS011;18083;50.560;7.262;2023-01-25T08:29:08;20.23;;;11.77;;
26484;SDS011;18083;50.560;7.262;2023-01-25T08:43:49;26.30;;;14.23;;
26484;SDS011;18083;50.560;7.262;2023-01-25T08:46:17;21.33;;;12.07;;
26484;SDS011;18083;50.560;7.262;2023-01-25T08:48:45;25.13;;;13.23;;
26484;SDS011;18083;50.560;7.262;2023-01-25T08:51:13;20.60;;;13.57;;
26484;SDS011;18083;50.560;7.262;2023-01-25T08:53:40;24.07;;;11.63;;
26484;SDS011;18083;50.560;7.262;2023-01-25T08:56:09;19.10;;;11.67;;
26484;SDS011;18083;50.560;7.262;2023-01-25T08:58:37;23.20;;;12.70;;
26484;SDS011;18083;50.560;7.262;2023-01-25T09:01:06;26.97;;;14.23;;
26484;SDS011;18083;50.560;7.262;2023-01-25T09:03:35;77.00;;;34.10;;
26484;SDS011;18083;50.560;7.262;2023-01-25T09:06:02;76.80;;;32.63;;
26484;SDS011;18083;50.560;7.262;2023-01-25T09:08:30;85.23;;;38.23;;
26484;SDS011;18083;50.560;7.262;2023-01-25T09:11:01;54.20;;;26.40;;
26484;SDS011;18083;50.560;7.262;2023-01-25T09:13:29;27.63;;;14.43;;
26484;SDS011;18083;50.560;7.262;2023-01-25T09:16:03;24.67;;;11.80;;
26484;SDS011;18083;50.560;7.262;2023-01-25T09:18:31;23.97;;;13.57;;
26484;SDS011;18083;50.560;7.262;2023-01-25T09:20:59;22.87;;;12.37;;
26484;SDS011;18083;50.560;7.262;2023-01-25T09:23:26;22.93;;;13.53;;
26484;SDS011;18083;50.560;7.262;2023-01-25T09:26:03;19.40;;;10.93;;
26484;SDS011;18083;50.560;7.262;2023-01-25T09:28:33;18.17;;;10.87;;
26484;SDS011;18083;50.560;7.262;2023-01-25T09:31:02;24.73;;;12.33;;
26484;SDS011;18083;50.560;7.262;2023-01-25T09:33:38;17.83;;;11.47;;
26484;SDS011;18083;50.560;7.262;2023-01-25T09:36:06;15.97;;;9.80;;
26484;SDS011;18083;50.560;7.262;2023-01-25T09:38:33;22.00;;;12.20;;
26484;SDS011;18083;50.560;7.262;2023-01-25T09:48:53;17.00;;;9.93;;
26484;SDS011;18083;50.560;7.262;2023-01-25T09:51:21;20.97;;;12.30;;
26484;SDS011;18083;50.560;7.262;2023-01-25T09:53:52;18.80;;;12.13;;
26484;SDS011;18083;50.560;7.262;2023-01-25T09:56:19;18.30;;;9.57;;
26484;SDS011;18083;50.560;7.262;2023-01-25T09:58:45;17.67;;;10.17;;
26484;SDS011;18083;50.560;7.262;2023-01-25T10:01:19;21.30;;;11.40;;
26484;SDS011;18083;50.560;7.262;2023-01-25T10:03:51;18.17;;;10.80;;
26484;SDS011;18083;50.560;7.262;2023-01-25T10:06:17;21.33;;;12.77;;
26484;SDS011;18083;50.560;7.262;2023-01-25T10:08:50;21.33;;;12.43;;
26484;SDS011;18083;50.560;7.262;2023-01-25T10:11:22;25.50;;;11.93;;
26484;SDS011;18083;50.560;7.262;2023-01-25T10:13:49;21.30;;;12.90;;
26484;SDS011;18083;50.560;7.262;2023-01-25T10:16:21;24.33;;;12.47;;
26484;SDS011;18083;50.560;7.262;2023-01-25T10:19:04;23.87;;;12.67;;
26484;SDS011;18083;50.560;7.262;2023-01-25T10:21:39;18.67;;;11.23;;
26484;SDS011;18083;50.560;7.262;2023-01-25T10:26:46;22.70;;;11.93;;
26484;SDS011;18083;50.560;7.262;2023-01-25T10:29:15;20.63;;;13.07;;
26484;SDS011;18083;50.560;7.262;2023-01-25T10:31:52;18.93;;;11.23;;
26484;SDS011;18083;50.560;7.262;2023-01-25T10:34:25;22.30;;;12.23;;
26484;SDS011;18083;50.560;7.262;2023-01-25T10:36:50;21.27;;;10.97;;
26484;SDS011;18083;50.560;7.262;2023-01-25T10:39:17;24.93;;;11.87;;
26484;SDS011;18083;50.560;7.262;2023-01-25T10:42:04;22.93;;;12.67;;
26484;SDS011;18083;50.560;7.262;2023-01-25T10:44:17;19.33;;;10.73;;
26484;SDS011;18083;50.560;7.262;2023-01-25T10:46:58;18.03;;;10.43;;
26484;SDS011;18083;50.560;7.262;2023-01-25T10:49:23;20.47;;;11.70;;
26484;SDS011;18083;50.560;7.262;2023-01-25T10:51:53;16.47;;;10.17;;
26484;SDS011;18083;50.560;7.262;2023-01-25T10:54:21;22.73;;;11.37;;
26484;SDS011;18083;50.560;7.262;2023-01-25T10:56:49;20.63;;;11.67;;
26484;SDS011;18083;50.560;7.262;2023-01-25T10:59:19;28.47;;;15.27;;
26484;SDS011;18083;50.560;7.262;2023-01-25T11:01:45;21.40;;;13.33;;
26484;SDS011;18083;50.560;7.262;2023-01-25T11:04:23;19.07;;;11.53;;
26484;SDS011;18083;50.560;7.262;2023-01-25T11:06:52;15.40;;;10.63;;
26484;SDS011;18083;50.560;7.262;2023-01-25T11:11:54;23.50;;;11.50;;
26484;SDS011;18083;50.560;7.262;2023-01-25T11:14:27;22.30;;;11.23;;
26484;SDS011;18083;50.560;7.262;2023-01-25T11:16:54;19.60;;;12.53;;
26484;SDS011;18083;50.560;7.262;2023-01-25T11:19:35;21.43;;;10.63;;
26484;SDS011;18083;50.560;7.262;2023-01-25T11:22:04;22.33;;;12.93;;
26484;SDS011;18083;50.560;7.262;2023-01-25T11:24:32;26.03;;;12.77;;
26484;SDS011;18083;50.560;7.262;2023-01-25T11:30:05;20.30;;;11.73;;
26484;SDS011;18083;50.560;7.262;2023-01-25T11:35:10;20.93;;;11.90;;
26484;SDS011;18083;50.560;7.262;2023-01-25T11:37:43;21.57;;;14.00;;
26484;SDS011;18083;50.560;7.262;2023-01-25T11:42:47;27.13;;;13.33;;
26484;SDS011;18083;50.560;7.262;2023-01-25T11:51:19;21.43;;;13.13;;
26484;SDS011;18083;50.560;7.262;2023-01-25T11:56:34;25.00;;;14.60;;
26484;SDS011;18083;50.560;7.262;2023-01-25T12:09:40;25.13;;;13.13;;
26484;SDS011;18083;50.560;7.262;2023-01-25T12:14:50;20.60;;;12.53;;
26484;SDS011;18083;50.560;7.262;2023-01-25T12:17:41;19.43;;;12.13;;
26484;SDS011;18083;50.560;7.262;2023-01-25T12:49:45;30.43;;;15.00;;
26484;SDS011;18083;50.560;7.262;2023-01-25T12:52:33;27.20;;;15.17;;
26484;SDS011;18083;50.560;7.262;2023-01-25T12:55:27;27.10;;;16.37;;
26484;SDS011;18083;50.560;7.262;2023-01-25T13:00:54;29.10;;;16.13;;
26484;SDS011;18083;50.560;7.262;2023-01-25T13:09:00;31.50;;;14.97;;
26484;SDS011;18083;50.560;7.262;2023-01-25T13:11:39;31.03;;;14.50;;
26484;SDS011;18083;50.560;7.262;2023-01-25T13:14:25;27.73;;;14.53;;
26484;SDS011;18083;50.560;7.262;2023-01-25T13:17:10;28.80;;;15.97;;
26484;SDS011;18083;50.560;7.262;2023-01-25T13:21:58;28.87;;;16.57;;
26484;SDS011;18083;50.560;7.262;2023-01-25T13:24:27;30.30;;;15.90;;
26484;SDS011;18083;50.560;7.262;2023-01-25T13:32:01;26.00;;;16.13;;
26484;SDS011;18083;50.560;7.262;2023-01-25T13:37:17;34.13;;;17.40;;
26484;SDS011;18083;50.560;7.262;2023-01-25T13:39:50;30.50;;;16.23;;
26484;SDS011;18083;50.560;7.262;2023-01-25T13:42:23;30.83;;;16.73;;
26484;SDS011;18083;50.560;7.262;2023-01-25T13:44:58;30.40;;;16.90;;
26484;SDS011;18083;50.560;7.262;2023-01-25T13:47:34;29.87;;;15.93;;
26484;SDS011;18083;50.560;7.262;2023-01-25T13:52:55;27.33;;;15.63;;
26484;SDS011;18083;50.560;7.262;2023-01-25T13:55:21;27.87;;;15.67;;
26484;SDS011;18083;50.560;7.262;2023-01-25T13:57:48;27.50;;;15.90;;
26484;SDS011;18083;50.560;7.262;2023-01-25T14:00:17;28.30;;;15.87;;
26484;SDS011;18083;50.560;7.262;2023-01-25T14:02:48;28.50;;;14.97;;
26484;SDS011;18083;50.560;7.262;2023-01-25T14:05:18;29.17;;;16.73;;
26484;SDS011;18083;50.560;7.262;2023-01-25T14:07:46;30.53;;;16.63;;
26484;SDS011;18083;50.560;7.262;2023-01-25T14:10:16;26.77;;;14.43;;
26484;SDS011;18083;50.560;7.262;2023-01-25T14:12:44;27.23;;;14.37;;
26484;SDS011;18083;50.560;7.262;2023-01-25T14:15:16;31.80;;;17.03;;
26484;SDS011;18083;50.560;7.262;2023-01-25T14:17:43;21.00;;;12.73;;
26484;SDS011;18083;50.560;7.262;2023-01-25T14:20:17;31.00;;;15.80;;
26484;SDS011;18083;50.560;7.262;2023-01-25T14:22:47;29.70;;;17.03;;
26484;SDS011;18083;50.560;7.262;2023-01-25T14:25:17;30.77;;;15.50;;
26484;SDS011;18083;50.560;7.262;2023-01-25T14:27:46;25.50;;;14.77;;
26484;SDS011;18083;50.560;7.262;2023-01-25T14:30:18;29.23;;;13.93;;
26484;SDS011;18083;50.560;7.262;2023-01-25T14:32:42;30.57;;;14.03;;
26484;SDS011;18083;50.560;7.262;2023-01-25T14:37:55;22.70;;;13.17;;
26484;SDS011;18083;50.560;7.262;2023-01-25T14:40:23;31.43;;;14.97;;
26484;SDS011;18083;50.560;7.262;2023-01-25T14:42:51;26.47;;;13.80;;
26484;SDS011;18083;50.560;7.262;2023-01-25T14:45:19;26.17;;;13.83;;
26484;SDS011;18083;50.560;7.262;2023-01-25T14:47:49;29.80;;;15.33;;
26484;SDS011;18083;50.560;7.262;2023-01-25T14:50:37;23.50;;;13.50;;
26484;SDS011;18083;50.560;7.262;2023-01-25T14:53:11;30.63;;;13.23;;
26484;SDS011;18083;50.560;7.262;2023-01-25T14:55:36;20.47;;;12.13;;
26484;SDS011;18083;50.560;7.262;2023-01-25T14:58:08;22.27;;;12.00;;
26484;SDS011;18083;50.560;7.262;2023-01-25T15:00:32;21.20;;;10.77;;
26484;SDS011;18083;50.560;7.262;2023-01-25T15:03:03;25.70;;;13.57;;
26484;SDS011;18083;50.560;7.262;2023-01-25T15:05:34;22.53;;;14.07;;
26484;SDS011;18083;50.560;7.262;2023-01-25T15:08:23;27.40;;;14.03;;
26484;SDS011;18083;50.560;7.262;2023-01-25T15:14:01;33.77;;;14.87;;
26484;SDS011;18083;50.560;7.262;2023-01-25T15:22:22;22.83;;;13.27;;
26484;SDS011;18083;50.560;7.262;2023-01-25T15:24:50;30.40;;;15.83;;
26484;SDS011;18083;50.560;7.262;2023-01-25T15:27:17;26.40;;;15.53;;
26484;SDS011;18083;50.560;7.262;2023-01-25T15:29:45;30.93;;;16.20;;
26484;SDS011;18083;50.560;7.262;2023-01-25T15:32:19;23.73;;;13.47;;
26484;SDS011;18083;50.560;7.262;2023-01-25T15:34:47;24.27;;;13.07;;
26484;SDS011;18083;50.560;7.262;2023-01-25T15:37:14;26.83;;;15.27;;
26484;SDS011;18083;50.560;7.262;2023-01-25T15:39:42;34.83;;;17.33;;
26484;SDS011;18083;50.560;7.262;2023-01-25T15:42:13;30.90;;;18.67;;
26484;SDS011;18083;50.560;7.262;2023-01-25T15:44:39;27.40;;;15.50;;
26484;SDS011;18083;50.560;7.262;2023-01-25T15:47:07;26.87;;;14.97;;
26484;SDS011;18083;50.560;7.262;2023-01-25T15:49:35;32.97;;;17.40;;
26484;SDS011;18083;50.560;7.262;2023-01-25T15:52:05;32.13;;;16.43;;
26484;SDS011;18083;50.560;7.262;2023-01-25T15:54:33;30.83;;;16.50;;
26484;SDS011;18083;50.560;7.262;2023-01-25T15:57:00;34.33;;;18.23;;
26484;SDS011;18083;50.560;7.262;2023-01-25T15:59:27;30.87;;;16.73;;
26484;SDS011;18083;50.560;7.262;2023-01-25T16:01:55;33.40;;;16.63;;
26484;SDS011;18083;50.560;7.262;2023-01-25T16:04:22;35.10;;;18.53;;
26484;SDS011;18083;50.560;7.262;2023-01-25T16:06:51;34.67;;;17.53;;
26484;SDS011;18083;50.560;7.262;2023-01-25T16:09:20;34.37;;;17.37;;
26484;SDS011;18083;50.560;7.262;2023-01-25T16:11:52;32.43;;;18.20;;
26484;SDS011;18083;50.560;7.262;2023-01-25T16:14:19;42.30;;;21.13;;
26484;SDS011;18083;50.560;7.262;2023-01-25T16:16:49;37.17;;;21.13;;
26484;SDS011;18083;50.560;7.262;2023-01-25T16:19:19;39.27;;;19.00;;
26484;SDS011;18083;50.560;7.262;2023-01-25T16:21:47;32.70;;;17.83;;
26484;SDS011;18083;50.560;7.262;2023-01-25T16:24:15;41.50;;;19.80;;
26484;SDS011;18083;50.560;7.262;2023-01-25T16:26:43;39.67;;;17.93;;
26484;SDS011;18083;50.560;7.262;2023-01-25T16:29:11;38.47;;;19.40;;
26484;SDS011;18083;50.560;7.262;2023-01-25T16:31:40;39.57;;;19.97;;
26484;SDS011;18083;50.560;7.262;2023-01-25T16:34:07;44.67;;;19.27;;
26484;SDS011;18083;50.560;7.262;2023-01-25T16:36:34;37.53;;;18.60;;
26484;SDS011;18083;50.560;7.262;2023-01-25T16:39:06;35.37;;;19.60;;
26484;SDS011;18083;50.560;7.262;2023-01-25T16:41:35;38.67;;;19.00;;
26484;SDS011;18083;50.560;7.262;2023-01-25T16:44:02;42.53;;;19.90;;
26484;SDS011;18083;50.560;7.262;2023-01-25T16:46:29;37.37;;;19.10;;
26484;SDS011;18083;50.560;7.262;2023-01-25T16:48:57;41.63;;;21.83;;
26484;SDS011;18083;50.560;7.262;2023-01-25T16:51:26;35.20;;;18.50;;
26484;SDS011;18083;50.560;7.262;2023-01-25T16:53:54;31.60;;;17.10;;
26484;SDS011;18083;50.560;7.262;2023-01-25T16:56:28;32.80;;;15.90;;
26484;SDS011;18083;50.560;7.262;2023-01-25T16:58:52;36.07;;;16.27;;
26484;SDS011;18083;50.560;7.262;2023-01-25T17:01:20;30.70;;;15.13;;
26484;SDS011;18083;50.560;7.262;2023-01-25T17:03:48;28.53;;;15.73;;
26484;SDS011;18083;50.560;7.262;2023-01-25T17:06:17;32.57;;;16.87;;
26484;SDS011;18083;50.560;7.262;2023-01-25T17:08:45;32.40;;;14.73;;
26484;SDS011;18083;50.560;7.262;2023-01-25T17:11:13;36.00;;;18.20;;
26484;SDS011;18083;50.560;7.262;2023-01-25T17:13:40;37.13;;;18.43;;
26484;SDS011;18083;50.560;7.262;2023-01-25T17:16:07;34.27;;;18.47;;
26484;SDS011;18083;50.560;7.262;2023-01-25T17:18:35;30.97;;;17.30;;
26484;SDS011;18083;50.560;7.262;2023-01-25T17:21:03;29.77;;;18.23;;
26484;SDS011;18083;50.560;7.262;2023-01-25T17:23:35;41.50;;;18.33;;
26484;SDS011;18083;50.560;7.262;2023-01-25T17:26:04;35.57;;;17.37;;
26484;SDS011;18083;50.560;7.262;2023-01-25T17:28:31;35.90;;;16.37;;
26484;SDS011;18083;50.560;7.262;2023-01-25T17:30:59;42.77;;;21.00;;
26484;SDS011;18083;50.560;7.262;2023-01-25T17:33:26;31.87;;;15.87;;